Time;durP1;ratioP1;P1;durP2;ratioP2;P2;SDS_P1;SDS_P2;PMS_P1;PMS_P2;Temp;Humidity;BMP_temperature;BMP_pressure;BME280_temperature;BME280_humidity;BME280_pressure;Samples;Min_cycle;Max_cycle;Signal;HPM_P1;HPM_P2
2023/05/21 00:01:47;;;;;;;14.33;12.93;;;17.90;99.90;;;;;;5095814;28;20469;-76
2023/05/21 00:04:14;;;;;;;16.17;14.77;;;17.90;99.90;;;;;;5093238;28;20489;-76
2023/05/21 00:06:43;;;;;;;14.30;13.00;;;17.90;99.90;;;;;;5095261;28;20553;-76
2023/05/21 00:09:11;;;;;;;15.30;13.77;;;17.90;99.90;;;;;;5095747;28;20838;-76
2023/05/21 00:11:39;;;;;;;15.23;13.77;;;17.90;99.90;;;;;;5094954;28;20476;-75
2023/05/21 00:14:07;;;;;;;17.67;15.93;;;17.90;99.90;;;;;;5093708;28;20950;-76
2023/05/21 00:16:34;;;;;;;15.83;14.53;;;17.90;99.90;;;;;;5095294;28;20483;-76
2023/05/21 00:19:02;;;;;;;14.73;13.50;;;17.80;99.90;;;;;;5094151;28;20469;-76
2023/05/21 00:21:30;;;;;;;15.30;14.00;;;17.80;99.90;;;;;;5094950;28;20461;-76
2023/05/21 00:24:01;;;;;;;16.57;14.87;;;17.80;99.90;;;;;;5094719;28;20563;-77
2023/05/21 00:26:28;;;;;;;17.00;14.97;;;17.80;99.90;;;;;;5094433;28;20501;-77
2023/05/21 00:28:55;;;;;;;17.77;16.10;;;17.80;99.90;;;;;;5092736;28;20461;-77
2023/05/21 00:31:25;;;;;;;17.17;15.57;;;17.80;99.90;;;;;;5094856;28;20481;-76
2023/05/21 00:33:52;;;;;;;18.00;16.30;;;17.70;99.90;;;;;;5090020;28;20515;-76
2023/05/21 00:36:22;;;;;;;17.83;16.13;;;17.70;99.90;;;;;;5092832;28;20488;-75
2023/05/21 00:38:50;;;;;;;15.10;13.80;;;17.60;99.90;;;;;;5092774;28;20472;-76
2023/05/21 00:41:28;;;;;;;15.43;13.93;;;17.70;99.90;;;;;;5083470;28;20571;-77
2023/05/21 00:43:56;;;;;;;15.50;14.10;;;17.60;99.90;;;;;;5094113;28;20759;-77
2023/05/21 00:46:23;;;;;;;14.37;13.07;;;17.60;99.90;;;;;;5093267;28;20466;-76
2023/05/21 00:48:51;;;;;;;16.07;14.50;;;17.60;99.90;;;;;;5094237;28;20930;-76
2023/05/21 00:51:20;;;;;;;16.73;15.03;;;17.60;99.90;;;;;;5093565;28;20487;-75
2023/05/21 00:53:53;;;;;;;16.70;13.90;;;17.60;99.90;;;;;;5094186;28;20469;-77
2023/05/21 00:56:25;;;;;;;18.30;16.50;;;17.60;99.90;;;;;;5093414;28;20504;-76
2023/05/21 00:58:57;;;;;;;15.90;14.30;;;17.60;99.90;;;;;;5090723;28;20482;-78
2023/05/21 01:01:26;;;;;;;16.63;15.00;;;17.60;99.90;;;;;;5092799;28;20556;-76
2023/05/21 01:03:56;;;;;;;16.40;15.00;;;17.50;99.90;;;;;;5073102;28;20983;-76
2023/05/21 01:06:23;;;;;;;14.70;13.30;;;17.50;99.90;;;;;;5073241;28;20455;-76
2023/05/21 01:08:51;;;;;;;16.83;14.67;;;17.50;99.90;;;;;;5071880;28;20466;-76
2023/05/21 01:11:20;;;;;;;13.83;12.57;;;17.50;99.90;;;;;;5073606;28;20470;-78
2023/05/21 01:13:50;;;;;;;16.33;14.70;;;17.50;99.90;;;;;;5086359;28;20527;-76
2023/05/21 01:16:17;;;;;;;16.23;14.73;;;17.40;99.90;;;;;;5093393;28;20477;-77
2023/05/21 01:18:44;;;;;;;14.90;13.63;;;17.40;99.90;;;;;;5093324;28;20493;-77
2023/05/21 01:21:11;;;;;;;16.07;14.57;;;17.50;99.90;;;;;;5092786;28;20470;-77
2023/05/21 01:23:39;;;;;;;16.70;15.03;;;17.40;99.90;;;;;;5093250;28;21067;-77
2023/05/21 01:26:07;;;;;;;16.07;14.57;;;17.40;99.90;;;;;;5092781;28;20523;-78
2023/05/21 01:28:34;;;;;;;15.63;14.23;;;17.40;99.90;;;;;;5092491;28;20468;-77
2023/05/21 01:31:17;;;;;;;18.17;16.50;;;17.40;99.90;;;;;;5092720;28;20469;-77
2023/05/21 01:33:48;;;;;;;19.50;17.63;;;17.40;99.90;;;;;;5093527;28;20453;-76
2023/05/21 01:36:22;;;;;;;16.90;15.27;;;17.40;99.90;;;;;;5092730;28;20472;-76
2023/05/21 01:38:59;;;;;;;18.10;16.43;;;17.40;99.90;;;;;;5093244;28;20548;-78
2023/05/21 01:41:29;;;;;;;15.73;14.23;;;17.40;99.90;;;;;;5093441;28;20496;-76
2023/05/21 01:43:56;;;;;;;16.77;15.17;;;17.40;99.90;;;;;;5092603;28;20572;-77
2023/05/21 01:46:27;;;;;;;17.07;15.57;;;17.40;99.90;;;;;;5093299;28;20497;-77
2023/05/21 01:48:56;;;;;;;17.13;15.63;;;17.40;99.90;;;;;;5092408;28;20453;-76
2023/05/21 01:51:24;;;;;;;18.10;16.37;;;17.30;99.90;;;;;;5091321;28;20465;-77
2023/05/21 01:53:53;;;;;;;15.60;14.30;;;17.30;99.90;;;;;;5092503;28;20978;-77
2023/05/21 01:56:21;;;;;;;18.33;16.43;;;17.30;99.90;;;;;;5092293;28;20508;-76
2023/05/21 01:58:48;;;;;;;16.10;14.67;;;17.30;99.90;;;;;;5092537;28;20492;-76
2023/05/21 02:01:15;;;;;;;19.77;17.87;;;17.30;99.90;;;;;;5092806;28;20501;-76
2023/05/21 02:03:42;;;;;;;18.77;16.97;;;17.30;99.90;;;;;;5092096;28;20817;-77
2023/05/21 02:06:09;;;;;;;17.03;15.53;;;17.30;99.90;;;;;;5091791;28;20468;-77
2023/05/21 02:08:42;;;;;;;18.03;16.43;;;17.30;99.90;;;;;;5092571;28;20522;-75
2023/05/21 02:11:13;;;;;;;18.27;16.63;;;17.30;99.90;;;;;;5092776;28;20791;-76
2023/05/21 02:13:44;;;;;;;18.47;16.60;;;17.30;99.90;;;;;;5092051;28;20505;-77
2023/05/21 02:16:14;;;;;;;18.33;16.63;;;17.30;99.90;;;;;;5078910;28;20969;-77
2023/05/21 02:18:50;;;;;;;19.07;17.07;;;17.30;99.90;;;;;;5072370;28;20466;-76
2023/05/21 02:21:17;;;;;;;17.00;15.60;;;17.20;99.90;;;;;;5072274;28;20488;-76
2023/05/21 02:23:44;;;;;;;18.27;16.47;;;17.30;99.90;;;;;;5071762;28;20965;-76
2023/05/21 02:26:12;;;;;;;18.10;16.50;;;17.30;99.90;;;;;;5073087;28;20466;-76
2023/05/21 02:28:40;;;;;;;20.57;18.67;;;17.20;99.90;;;;;;5072182;28;20473;-76
2023/05/21 02:31:07;;;;;;;18.70;16.80;;;17.20;99.90;;;;;;5073150;28;20465;-77
2023/05/21 02:33:34;;;;;;;18.60;16.83;;;17.20;99.90;;;;;;5073307;28;20846;-76
2023/05/21 02:36:02;;;;;;;19.90;18.10;;;17.20;99.90;;;;;;5071254;28;20565;-76
2023/05/21 02:38:31;;;;;;;19.70;17.70;;;17.20;99.90;;;;;;5071912;28;20470;-76
2023/05/21 02:40:58;;;;;;;20.80;18.70;;;17.10;99.90;;;;;;5072630;28;20557;-76
2023/05/21 02:43:26;;;;;;;19.53;17.73;;;17.10;99.90;;;;;;5092907;28;20511;-76
2023/05/21 02:45:57;;;;;;;21.67;19.37;;;17.10;99.90;;;;;;5093434;28;20469;-76
2023/05/21 02:48:23;;;;;;;21.73;19.63;;;17.00;99.90;;;;;;5097006;28;20461;-76
2023/05/21 02:50:51;;;;;;;20.10;18.20;;;17.00;99.90;;;;;;5095931;28;20473;-76
2023/05/21 02:53:20;;;;;;;24.27;21.67;;;16.90;99.90;;;;;;5088632;28;21008;-76
2023/05/21 02:55:47;;;;;;;17.87;16.33;;;16.90;99.90;;;;;;5095882;28;20543;-76
2023/05/21 02:58:14;;;;;;;21.73;19.63;;;17.00;99.90;;;;;;5096381;28;20473;-76
2023/05/21 03:00:43;;;;;;;24.23;21.67;;;16.90;99.90;;;;;;5096432;28;20470;-77
2023/05/21 03:03:10;;;;;;;21.00;19.20;;;16.90;99.90;;;;;;5096879;28;20468;-77
2023/05/21 03:05:40;;;;;;;19.70;17.90;;;16.90;99.90;;;;;;5096288;28;20496;-76
2023/05/21 03:08:07;;;;;;;18.63;17.00;;;17.00;99.90;;;;;;5095773;28;20926;-76
2023/05/21 03:10:34;;;;;;;23.00;20.73;;;17.00;99.90;;;;;;5095868;28;20469;-76
2023/05/21 03:13:03;;;;;;;22.20;19.80;;;16.90;99.90;;;;;;5095695;28;20518;-77
2023/05/21 03:15:32;;;;;;;21.70;19.60;;;16.90;99.90;;;;;;5096411;28;20469;-76
2023/05/21 03:18:00;;;;;;;19.53;17.77;;;17.00;99.90;;;;;;5095912;28;20553;-76
2023/05/21 03:20:29;;;;;;;22.63;20.23;;;17.00;99.90;;;;;;5096226;28;20527;-76
2023/05/21 03:22:56;;;;;;;22.10;19.90;;;17.00;99.90;;;;;;5095346;28;20477;-76
2023/05/21 03:25:24;;;;;;;23.23;20.77;;;16.90;99.90;;;;;;5091884;28;20484;-77
2023/05/21 03:27:52;;;;;;;24.27;21.97;;;16.90;99.90;;;;;;5095855;28;20995;-76
2023/05/21 03:30:19;;;;;;;23.47;21.17;;;16.90;99.90;;;;;;5095508;28;20484;-76
2023/05/21 03:32:48;;;;;;;23.10;21.07;;;17.00;99.90;;;;;;5095832;28;20490;-77
2023/05/21 03:35:17;;;;;;;20.57;18.77;;;17.00;99.90;;;;;;5095757;28;20469;-76
2023/05/21 03:37:47;;;;;;;22.57;19.80;;;17.00;99.90;;;;;;5095992;28;20476;-77
2023/05/21 03:40:15;;;;;;;23.93;21.73;;;17.00;99.90;;;;;;5084580;28;20462;-77
2023/05/21 03:42:42;;;;;;;22.63;20.53;;;17.00;99.90;;;;;;5091320;28;20542;-76
2023/05/21 03:45:10;;;;;;;23.57;21.30;;;17.00;99.90;;;;;;5094471;28;20978;-76
2023/05/21 03:47:37;;;;;;;20.30;18.53;;;17.00;99.90;;;;;;5095203;28;20480;-76
2023/05/21 03:50:05;;;;;;;19.73;17.63;;;17.10;99.90;;;;;;5095096;28;20469;-76
2023/05/21 03:52:33;;;;;;;20.33;18.50;;;17.10;99.90;;;;;;5095367;28;20756;-76
2023/05/21 03:55:00;;;;;;;25.50;23.03;;;17.10;99.90;;;;;;5094738;28;20497;-76
2023/05/21 03:57:28;;;;;;;19.93;18.13;;;17.10;99.90;;;;;;5083891;28;20523;-76
2023/05/21 03:59:57;;;;;;;24.40;22.07;;;17.20;99.90;;;;;;5094817;28;20595;-77
2023/05/21 04:02:26;;;;;;;22.33;20.30;;;17.10;99.90;;;;;;5094739;28;20460;-74
2023/05/21 04:04:54;;;;;;;24.50;22.20;;;17.20;99.90;;;;;;5094982;28;20504;-75
2023/05/21 04:07:21;;;;;;;22.33;20.30;;;17.20;99.90;;;;;;5093823;28;20534;-74
2023/05/21 04:09:49;;;;;;;21.10;19.10;;;17.20;99.90;;;;;;5094738;28;20497;-75
2023/05/21 04:12:18;;;;;;;21.07;19.33;;;17.30;99.90;;;;;;5094365;28;20484;-74
2023/05/21 04:14:46;;;;;;;22.23;19.70;;;17.30;99.90;;;;;;5094427;28;20465;-74
2023/05/21 04:17:13;;;;;;;20.90;18.70;;;17.30;99.90;;;;;;5094507;28;20804;-74
2023/05/21 04:19:40;;;;;;;20.53;18.60;;;17.30;99.90;;;;;;5094772;28;20557;-76
2023/05/21 04:22:13;;;;;;;20.40;18.60;;;17.40;99.90;;;;;;5084906;28;20469;-76
2023/05/21 04:24:41;;;;;;;23.60;21.43;;;17.40;99.90;;;;;;5095135;28;20804;-74
2023/05/21 04:27:09;;;;;;;20.93;18.93;;;17.40;99.90;;;;;;5094019;28;20473;-75
2023/05/21 04:29:41;;;;;;;23.73;21.63;;;17.40;99.90;;;;;;5094198;28;20461;-74
2023/05/21 04:32:08;;;;;;;22.23;20.20;;;17.50;99.90;;;;;;5093714;28;20465;-75
2023/05/21 04:34:35;;;;;;;21.50;19.50;;;17.50;99.90;;;;;;5093891;28;20473;-76
2023/05/21 04:37:02;;;;;;;23.40;21.10;;;17.50;99.90;;;;;;5093321;28;20564;-76
2023/05/21 04:39:30;;;;;;;20.73;18.83;;;17.50;99.90;;;;;;5093585;28;20519;-75
2023/05/21 04:41:57;;;;;;;21.33;19.30;;;17.50;99.90;;;;;;5093960;28;20484;-75
2023/05/21 04:44:32;;;;;;;22.03;20.00;;;17.60;99.90;;;;;;5092804;28;20461;-76
2023/05/21 04:47:00;;;;;;;22.20;20.00;;;17.60;99.90;;;;;;5093987;28;20465;-76
2023/05/21 04:49:27;;;;;;;22.90;20.90;;;17.70;99.90;;;;;;5093173;28;20462;-76
2023/05/21 04:51:57;;;;;;;20.17;18.30;;;17.70;99.90;;;;;;5094140;28;20484;-76
2023/05/21 04:54:25;;;;;;;24.00;21.67;;;17.80;99.90;;;;;;5093212;28;20522;-76
2023/05/21 04:56:52;;;;;;;25.80;23.27;;;17.80;99.90;;;;;;5093654;28;20516;-76
2023/05/21 04:59:23;;;;;;;21.40;19.50;;;17.90;99.90;;;;;;5075101;28;20549;-76
2023/05/21 05:01:51;;;;;;;20.03;18.30;;;17.90;99.90;;;;;;5093665;28;20469;-76
2023/05/21 05:04:18;;;;;;;20.10;18.30;;;18.00;99.90;;;;;;5084751;28;20465;-75
2023/05/21 05:06:46;;;;;;;20.53;18.70;;;18.10;99.90;;;;;;5093603;28;20794;-75
2023/05/21 05:09:13;;;;;;;23.80;21.57;;;18.20;99.90;;;;;;5091962;28;20519;-75
2023/05/21 05:11:40;;;;;;;20.97;19.00;;;18.20;99.90;;;;;;5093239;28;20461;-76
2023/05/21 05:14:07;;;;;;;22.17;20.00;;;18.30;99.90;;;;;;5093490;28;20462;-76
2023/05/21 05:16:35;;;;;;;22.17;20.10;;;18.40;99.90;;;;;;5091836;28;20477;-77
2023/05/21 05:19:03;;;;;;;24.80;22.60;;;18.40;99.90;;;;;;5092853;28;20479;-76
2023/05/21 05:21:30;;;;;;;23.07;20.80;;;18.40;99.90;;;;;;5092843;28;20465;-75
2023/05/21 05:23:57;;;;;;;23.80;21.80;;;18.50;99.90;;;;;;5093388;28;20481;-76
2023/05/21 05:26:25;;;;;;;24.20;21.70;;;18.50;99.90;;;;;;5092575;28;20484;-76
2023/05/21 05:28:52;;;;;;;24.00;21.90;;;18.60;99.90;;;;;;5093296;28;20473;-76
2023/05/21 05:31:19;;;;;;;22.30;20.07;;;18.70;99.90;;;;;;5092863;28;20465;-77
2023/05/21 05:33:46;;;;;;;22.90;20.70;;;18.70;99.90;;;;;;5092277;28;20864;-77
2023/05/21 05:36:14;;;;;;;23.83;21.60;;;18.80;99.90;;;;;;5091892;28;20481;-76
2023/05/21 05:38:41;;;;;;;21.40;19.47;;;18.90;99.90;;;;;;5092138;28;20466;-76
2023/05/21 05:41:08;;;;;;;19.83;18.13;;;19.00;99.90;;;;;;5092749;28;20475;-76
2023/05/21 05:43:35;;;;;;;19.83;18.13;;;19.10;99.90;;;;;;5092496;28;20457;-74
2023/05/21 05:46:02;;;;;;;21.70;19.70;;;19.20;99.90;;;;;;5092582;28;20498;-75
2023/05/21 05:48:32;;;;;;;20.00;18.30;;;19.20;99.90;;;;;;5092299;28;20946;-74
2023/05/21 05:51:00;;;;;;;21.40;19.57;;;19.30;99.90;;;;;;5092370;28;20480;-77
2023/05/21 05:53:28;;;;;;;22.90;20.73;;;19.40;99.90;;;;;;5092064;28;20950;-75
2023/05/21 05:55:55;;;;;;;21.63;19.53;;;19.40;99.90;;;;;;5092128;28;20478;-77
2023/05/21 05:58:24;;;;;;;22.80;20.80;;;19.50;99.90;;;;;;5091863;28;20465;-77
2023/05/21 06:00:52;;;;;;;19.27;17.67;;;19.50;99.90;;;;;;5091739;28;20469;-75
2023/05/21 06:03:19;;;;;;;18.13;16.53;;;19.60;99.90;;;;;;5091571;28;20465;-75
2023/05/21 06:05:46;;;;;;;22.43;20.27;;;19.70;99.90;;;;;;5092288;28;20476;-76
2023/05/21 06:08:13;;;;;;;21.23;19.20;;;19.60;99.90;;;;;;5091938;28;20480;-74
2023/05/21 06:10:41;;;;;;;22.27;19.90;;;19.70;99.90;;;;;;5091573;28;20462;-75
2023/05/21 06:13:08;;;;;;;22.30;20.30;;;19.80;99.90;;;;;;5092168;28;20963;-75
2023/05/21 06:15:35;;;;;;;19.70;17.80;;;19.80;99.90;;;;;;5091193;28;20473;-75
2023/05/21 06:18:02;;;;;;;21.77;19.77;;;19.90;99.90;;;;;;5091655;28;20922;-75
2023/05/21 06:20:29;;;;;;;22.63;20.27;;;19.90;99.90;;;;;;5094059;28;20569;-75
2023/05/21 06:22:56;;;;;;;21.00;19.20;;;20.00;99.90;;;;;;5096089;28;20472;-75
2023/05/21 06:25:24;;;;;;;19.47;17.60;;;20.00;99.90;;;;;;5095385;28;20469;-75
2023/05/21 06:27:52;;;;;;;21.30;19.33;;;20.10;99.90;;;;;;5096149;28;20590;-75
2023/05/21 06:30:19;;;;;;;19.70;17.87;;;20.20;99.90;;;;;;5095300;28;20477;-75
2023/05/21 06:32:46;;;;;;;19.83;18.13;;;20.30;99.90;;;;;;5095614;28;21015;-75
2023/05/21 06:35:13;;;;;;;21.37;19.33;;;20.30;99.90;;;;;;5095682;28;20520;-75
2023/05/21 06:37:40;;;;;;;19.50;17.80;;;20.30;99.90;;;;;;5095236;28;20511;-75
2023/05/21 06:40:08;;;;;;;19.03;17.53;;;20.40;99.90;;;;;;5095444;28;20465;-75
2023/05/21 06:42:35;;;;;;;19.50;17.90;;;20.30;99.90;;;;;;5095228;28;20958;-75
2023/05/21 06:45:04;;;;;;;21.80;19.13;;;20.40;99.90;;;;;;5096463;28;20469;-75
2023/05/21 06:47:31;;;;;;;20.13;18.37;;;20.40;99.90;;;;;;5096016;28;20534;-76
2023/05/21 06:49:59;;;;;;;18.70;17.00;;;20.40;99.90;;;;;;5096150;28;20872;-75
2023/05/21 06:52:26;;;;;;;20.17;18.07;;;20.40;99.90;;;;;;5095868;28;20522;-75
2023/05/21 06:54:53;;;;;;;19.80;17.90;;;20.50;99.90;;;;;;5096427;28;20469;-75
2023/05/21 06:57:20;;;;;;;19.83;18.17;;;20.50;99.90;;;;;;5095408;28;20491;-75
2023/05/21 06:59:47;;;;;;;18.40;16.70;;;20.50;99.90;;;;;;5095902;28;20461;-75
2023/05/21 07:02:16;;;;;;;19.10;17.33;;;20.60;99.90;;;;;;5096203;28;20841;-75
2023/05/21 07:04:43;;;;;;;19.27;17.47;;;20.70;99.90;;;;;;5095107;28;20469;-75
2023/05/21 07:07:10;;;;;;;16.77;15.37;;;20.70;99.90;;;;;;5095697;28;20469;-76
2023/05/21 07:09:37;;;;;;;18.70;17.03;;;20.70;99.90;;;;;;5084594;28;20466;-75
2023/05/21 07:12:04;;;;;;;17.93;16.27;;;20.80;99.90;;;;;;5084213;28;20462;-74
2023/05/21 07:14:31;;;;;;;19.77;18.07;;;20.80;99.90;;;;;;5095161;28;20461;-75
2023/05/21 07:16:58;;;;;;;17.40;15.93;;;20.90;99.90;;;;;;5095690;28;20900;-75
2023/05/21 07:19:29;;;;;;;17.00;15.40;;;20.90;99.90;;;;;;5095183;28;20504;-76
2023/05/21 07:21:56;;;;;;;17.90;16.10;;;21.10;99.90;;;;;;5094583;28;20808;-75
2023/05/21 07:24:26;;;;;;;16.50;15.13;;;21.20;99.90;;;;;;5095671;28;20462;-75
2023/05/21 07:26:56;;;;;;;17.27;15.80;;;21.20;99.90;;;;;;5094514;28;20481;-76
2023/05/21 07:29:23;;;;;;;17.50;15.90;;;21.40;99.90;;;;;;5095441;28;20466;-76
2023/05/21 07:31:50;;;;;;;17.50;16.00;;;21.60;99.90;;;;;;5094126;28;20791;-77
2023/05/21 07:34:17;;;;;;;15.20;13.73;;;21.90;99.90;;;;;;5095604;28;20573;-76
2023/05/21 07:36:45;;;;;;;16.20;14.43;;;22.00;99.90;;;;;;5093155;28;20465;-76
2023/05/21 07:39:12;;;;;;;16.83;15.43;;;22.30;99.90;;;;;;5095370;28;20530;-75
2023/05/21 07:41:39;;;;;;;15.43;14.23;;;22.40;99.90;;;;;;5093636;28;20481;-76
2023/05/21 07:44:06;;;;;;;16.13;14.77;;;22.50;99.90;;;;;;5095261;28;20473;-76
2023/05/21 07:46:33;;;;;;;15.60;14.20;;;22.70;99.90;;;;;;5095378;28;20935;-75
2023/05/21 07:49:00;;;;;;;16.60;15.10;;;22.80;99.90;;;;;;5094955;28;20523;-76
2023/05/21 07:51:27;;;;;;;17.10;15.60;;;23.00;99.90;;;;;;5094634;28;20525;-76
2023/05/21 07:53:57;;;;;;;15.47;14.00;;;23.10;99.90;;;;;;5094391;28;20496;-76
2023/05/21 07:56:25;;;;;;;15.90;13.10;;;23.20;99.90;;;;;;5095090;28;20531;-75
2023/05/21 07:58:52;;;;;;;12.63;11.63;;;23.40;99.90;;;;;;5094374;28;20544;-75
2023/05/21 08:01:19;;;;;;;16.07;14.83;;;23.50;99.90;;;;;;5095077;28;20462;-76
2023/05/21 08:03:49;;;;;;;16.23;14.63;;;23.50;99.90;;;;;;5094545;28;20483;-77
2023/05/21 08:06:16;;;;;;;13.23;12.13;;;23.70;99.90;;;;;;5094832;28;20878;-76
2023/05/21 08:08:42;;;;;;;14.67;13.37;;;23.70;99.90;;;;;;5094000;28;20997;-76
2023/05/21 08:11:11;;;;;;;14.13;12.83;;;23.80;99.90;;;;;;5094349;28;20461;-75
2023/05/21 08:13:38;;;;;;;14.50;13.40;;;24.00;99.90;;;;;;5093717;28;20473;-75
2023/05/21 08:16:06;;;;;;;21.50;19.50;;;24.00;99.90;;;;;;5093837;28;20483;-75
2023/05/21 08:18:33;;;;;;;19.60;17.60;;;24.00;99.90;;;;;;5094235;28;20474;-76
2023/05/21 08:21:00;;;;;;;16.97;15.33;;;24.20;99.90;;;;;;5093684;28;20954;-76
2023/05/21 08:23:27;;;;;;;14.97;13.67;;;24.20;99.90;;;;;;5094203;28;20523;-75
2023/05/21 08:25:54;;;;;;;15.03;13.70;;;24.10;99.90;;;;;;5092961;28;20534;-76
2023/05/21 08:28:23;;;;;;;14.97;13.43;;;24.20;99.90;;;;;;5094065;28;20497;-75
2023/05/21 08:30:50;;;;;;;14.17;13.00;;;24.30;99.90;;;;;;5093320;28;20857;-75
2023/05/21 08:33:17;;;;;;;13.80;12.70;;;24.30;99.90;;;;;;5093927;28;20472;-75
2023/05/21 08:35:44;;;;;;;14.47;13.00;;;24.30;99.90;;;;;;5093546;28;20985;-76
2023/05/21 08:38:11;;;;;;;13.23;12.13;;;24.40;99.90;;;;;;5093611;28;20469;-76
2023/05/21 08:40:40;;;;;;;15.90;13.67;;;24.30;99.90;;;;;;5093929;28;20469;-77
2023/05/21 08:43:11;;;;;;;11.87;10.77;;;24.40;99.90;;;;;;5092602;28;20775;-75
2023/05/21 08:45:42;;;;;;;12.83;11.83;;;24.40;99.90;;;;;;5093571;28;20571;-75
2023/05/21 08:48:12;;;;;;;12.50;11.50;;;24.40;99.90;;;;;;5092206;28;20884;-76
2023/05/21 08:50:39;;;;;;;12.90;11.80;;;24.50;99.90;;;;;;5093472;28;20453;-75
2023/05/21 08:53:06;;;;;;;12.47;11.40;;;24.40;99.90;;;;;;5092775;28;20523;-77
2023/05/21 08:55:33;;;;;;;14.00;12.70;;;24.40;99.90;;;;;;5093567;28;20933;-76
2023/05/21 08:58:00;;;;;;;12.37;11.33;;;24.40;99.90;;;;;;5093059;28;20465;-76
2023/05/21 09:00:27;;;;;;;14.27;12.67;;;24.50;99.90;;;;;;5092459;28;20504;-76
2023/05/21 09:02:55;;;;;;;14.50;13.20;;;24.50;99.90;;;;;;5092519;28;20473;-75
2023/05/21 09:05:24;;;;;;;15.07;11.93;;;24.40;99.90;;;;;;5093317;28;20485;-75
2023/05/21 09:07:55;;;;;;;13.80;12.47;;;24.50;99.90;;;;;;5093215;28;20475;-76
2023/05/21 09:10:27;;;;;;;12.70;11.70;;;24.50;99.90;;;;;;5093433;28;20541;-75
2023/05/21 09:12:54;;;;;;;13.13;11.97;;;24.50;99.90;;;;;;5093263;28;20966;-77
2023/05/21 09:15:22;;;;;;;12.30;11.10;;;24.60;99.90;;;;;;5093349;28;20470;-77
2023/05/21 09:17:49;;;;;;;11.40;10.43;;;24.60;99.90;;;;;;5092661;28;20569;-76
2023/05/21 09:20:24;;;;;;;13.20;12.03;;;24.60;99.90;;;;;;5091477;28;20469;-77
2023/05/21 09:22:56;;;;;;;10.60;9.80;;;24.60;99.90;;;;;;5093942;28;20533;-76
2023/05/21 09:25:26;;;;;;;11.87;10.87;;;24.70;99.90;;;;;;5093497;28;20467;-76
2023/05/21 09:27:55;;;;;;;12.67;11.50;;;24.70;99.90;;;;;;5093770;28;20973;-77
2023/05/21 09:30:23;;;;;;;12.77;11.57;;;24.70;99.90;;;;;;5081688;28;20469;-76
2023/05/21 09:32:54;;;;;;;12.40;11.20;;;24.70;99.90;;;;;;5093876;28;20611;-75
2023/05/21 09:35:23;;;;;;;12.27;11.17;;;24.80;99.90;;;;;;5093235;28;20492;-76
2023/05/21 09:37:51;;;;;;;11.90;10.77;;;24.80;99.90;;;;;;5094245;28;20530;-76
2023/05/21 09:40:20;;;;;;;10.77;9.77;;;24.80;99.90;;;;;;5093233;28;20525;-75
2023/05/21 09:42:48;;;;;;;11.77;10.77;;;24.90;99.90;;;;;;5080556;28;20516;-76
2023/05/21 09:45:19;;;;;;;11.43;10.57;;;24.90;99.90;;;;;;5092818;28;20545;-76
2023/05/21 09:47:47;;;;;;;11.10;10.20;;;24.90;99.90;;;;;;5094098;28;20465;-75
2023/05/21 09:50:18;;;;;;;10.57;9.63;;;25.00;99.90;;;;;;5093417;28;20491;-76
2023/05/21 09:52:49;;;;;;;10.20;9.20;;;25.00;99.90;;;;;;5093988;28;20457;-75
2023/05/21 09:55:17;;;;;;;16.70;10.03;;;25.20;99.90;;;;;;5093117;28;20832;-75
2023/05/21 09:57:45;;;;;;;10.80;9.80;;;25.20;99.90;;;;;;5093539;28;20477;-76
2023/05/21 10:00:18;;;;;;;11.47;10.47;;;25.20;99.90;;;;;;5093270;28;20527;-75
2023/05/21 10:02:46;;;;;;;12.83;9.93;;;25.20;99.90;;;;;;5093807;28;20468;-74
2023/05/21 10:05:15;;;;;;;10.50;9.70;;;25.20;99.90;;;;;;5101480;28;20497;-74
2023/05/21 10:07:44;;;;;;;9.37;8.67;;;25.20;99.90;;;;;;5097161;28;20482;-75
2023/05/21 10:10:19;;;;;;;16.23;9.10;;;25.20;99.70;;;;;;5094792;28;20477;-75
2023/05/21 10:12:51;;;;;;;10.40;9.30;;;25.30;99.80;;;;;;5093838;28;21005;-75
2023/05/21 10:15:24;;;;;;;9.67;8.90;;;25.30;99.60;;;;;;5093191;28;20489;-75
2023/05/21 10:17:52;;;;;;;10.20;9.00;;;25.40;99.70;;;;;;5092878;28;20461;-74
2023/05/21 10:20:20;;;;;;;10.33;9.60;;;25.40;99.60;;;;;;5094638;28;20970;-75
2023/05/21 10:22:48;;;;;;;11.40;10.37;;;25.40;99.60;;;;;;5104387;28;20465;-76
2023/05/21 10:25:17;;;;;;;10.27;9.30;;;25.40;99.60;;;;;;5095109;28;20962;-76
2023/05/21 10:27:45;;;;;;;9.23;8.53;;;25.40;99.30;;;;;;5092690;28;20465;-76
2023/05/21 10:30:12;;;;;;;10.47;9.67;;;25.40;99.10;;;;;;5093354;28;20481;-76
2023/05/21 10:32:40;;;;;;;10.60;9.70;;;25.50;99.30;;;;;;5092957;28;20477;-77
2023/05/21 10:35:09;;;;;;;10.50;9.50;;;25.60;98.80;;;;;;5097274;28;20475;-76
2023/05/21 10:37:37;;;;;;;10.63;9.60;;;25.60;98.80;;;;;;5092479;28;20560;-74
2023/05/21 10:40:06;;;;;;;10.93;9.90;;;25.60;98.70;;;;;;5101478;28;20550;-76
2023/05/21 10:43:21;;;;;;;8.93;8.30;;;25.70;98.80;;;;;;5092705;28;20848;-76
2023/05/21 10:46:02;;;;;;;10.90;9.63;;;25.70;98.60;;;;;;5054085;28;20469;-76
2023/05/21 10:48:43;;;;;;;10.73;9.63;;;25.80;98.70;;;;;;5092975;28;20931;-76
2023/05/21 10:51:22;;;;;;;9.73;8.93;;;25.80;98.40;;;;;;5094101;28;20453;-77
2023/05/21 10:54:23;;;;;;;9.70;8.80;;;25.80;98.10;;;;;;5092711;28;20476;-77
2023/05/21 10:57:00;;;;;;;10.93;9.80;;;25.80;98.00;;;;;;5071338;28;20972;-77
2023/05/21 10:59:40;;;;;;;10.23;9.33;;;25.80;97.70;;;;;;5092775;28;20492;-76
2023/05/21 11:02:07;;;;;;;9.40;8.70;;;25.80;97.50;;;;;;5092702;28;20472;-77
2023/05/21 11:04:38;;;;;;;10.53;9.63;;;25.80;97.40;;;;;;5077980;28;20504;-77
2023/05/21 11:07:05;;;;;;;9.20;8.50;;;25.80;97.50;;;;;;5094596;28;20480;-75
2023/05/21 11:09:33;;;;;;;9.27;8.57;;;25.80;97.60;;;;;;5095464;28;20554;-77
2023/05/21 11:12:03;;;;;;;9.63;8.83;;;25.80;97.70;;;;;;5095326;28;20848;-76
2023/05/21 11:14:37;;;;;;;9.00;8.23;;;25.90;97.40;;;;;;5095764;28;20485;-75
2023/05/21 11:17:10;;;;;;;9.40;8.13;;;25.90;96.30;;;;;;5095472;28;20456;-77
2023/05/21 11:19:39;;;;;;;9.73;8.73;;;25.90;96.40;;;;;;5096330;28;20488;-76
2023/05/21 11:22:20;;;;;;;9.47;8.70;;;25.90;96.10;;;;;;5096021;28;20544;-76
2023/05/21 11:24:48;;;;;;;11.73;8.80;;;26.00;95.70;;;;;;5095186;28;20534;-76
2023/05/21 11:27:33;;;;;;;11.10;7.90;;;26.00;94.90;;;;;;5095674;28;20923;-75
2023/05/21 11:30:04;;;;;;;8.80;8.00;;;26.00;94.70;;;;;;5092963;28;20457;-75
2023/05/21 11:32:31;;;;;;;8.50;7.90;;;26.10;94.60;;;;;;5095934;28;20469;-75
2023/05/21 11:35:03;;;;;;;8.20;7.23;;;26.20;94.60;;;;;;5095521;28;20468;-76
2023/05/21 11:37:33;;;;;;;9.03;7.77;;;26.20;94.40;;;;;;5094798;28;20778;-76
2023/05/21 11:40:26;;;;;;;8.00;7.30;;;26.30;94.20;;;;;;5094029;28;20818;-75
2023/05/21 11:42:54;;;;;;;8.23;7.50;;;26.30;93.70;;;;;;5093308;28;20474;-76
2023/05/21 11:45:23;;;;;;;8.57;7.77;;;26.40;93.50;;;;;;5084049;28;20887;-77
2023/05/21 11:47:52;;;;;;;8.60;7.00;;;26.40;93.30;;;;;;5093008;28;20474;-77
2023/05/21 11:50:19;;;;;;;10.03;7.77;;;26.50;92.60;;;;;;5092892;28;20469;-76
2023/05/21 11:52:47;;;;;;;8.37;7.10;;;26.50;92.50;;;;;;5095117;28;20478;-77
2023/05/21 11:55:16;;;;;;;7.70;7.00;;;26.50;92.30;;;;;;5093460;28;20917;-76
2023/05/21 11:57:46;;;;;;;7.30;6.80;;;26.60;92.30;;;;;;5093767;28;20811;-74
2023/05/21 12:00:16;;;;;;;8.63;7.70;;;26.60;92.00;;;;;;5093991;28;20941;-76
2023/05/21 12:02:51;;;;;;;11.20;7.17;;;26.60;91.60;;;;;;5094098;28;20474;-76
2023/05/21 12:05:18;;;;;;;7.57;6.90;;;26.60;91.70;;;;;;5094828;28;20478;-76
2023/05/21 12:07:48;;;;;;;7.57;6.80;;;26.60;91.60;;;;;;5093381;28;20943;-76
2023/05/21 12:10:16;;;;;;;9.50;7.70;;;26.60;91.50;;;;;;5095912;28;20471;-76
2023/05/21 12:12:44;;;;;;;8.13;7.43;;;26.60;91.40;;;;;;5096046;28;20467;-76
2023/05/21 12:15:12;;;;;;;8.43;7.63;;;26.60;91.40;;;;;;5095651;28;20558;-76
2023/05/21 12:17:39;;;;;;;8.60;7.10;;;26.60;91.30;;;;;;5095309;28;20467;-75
2023/05/21 12:20:09;;;;;;;7.53;6.93;;;26.60;90.80;;;;;;5093181;28;20466;-76
2023/05/21 12:22:42;;;;;;;9.77;7.20;;;26.70;90.60;;;;;;5095206;28;20477;-76
2023/05/21 12:25:10;;;;;;;8.30;7.70;;;26.70;90.50;;;;;;5094706;28;20484;-75
2023/05/21 12:27:37;;;;;;;14.10;6.93;;;26.60;90.50;;;;;;5095280;28;20470;-75
2023/05/21 12:30:06;;;;;;;7.00;6.50;;;26.60;90.40;;;;;;5095009;28;20457;-75
2023/05/21 12:32:33;;;;;;;7.90;7.13;;;26.60;90.40;;;;;;5083904;28;20473;-75
2023/05/21 12:35:00;;;;;;;8.07;7.27;;;26.60;90.40;;;;;;5093650;28;20477;-76
2023/05/21 12:37:31;;;;;;;7.27;6.57;;;26.60;90.00;;;;;;5094589;28;20838;-75
2023/05/21 12:40:00;;;;;;;7.07;6.47;;;26.60;90.00;;;;;;5095172;28;20474;-77